Time;durP1;ratioP1;P1;durP2;ratioP2;P2;SDS_P1;SDS_P2;PMS_P1;PMS_P2;Temp;Humidity;BMP_temperature;BMP_pressure;BME280_temperature;BME280_humidity;BME280_pressure;Samples;Min_cycle;Max_cycle;Signal;HPM_P1;HPM_P2
2023/08/19 00:02:06;;;;;;;12.80;1.83;;;;;;;16.07;100.00;97633.66;5024043;28;20021;-84
2023/08/19 00:04:32;;;;;;;8.25;1.30;;;;;;;16.08;100.00;97608.59;5011066;28;20041;-82
2023/08/19 00:06:57;;;;;;;7.22;0.90;;;;;;;16.01;100.00;97592.81;5019625;28;20036;-83
2023/08/19 00:09:23;;;;;;;8.10;1.00;;;;;;;16.02;100.00;97574.97;5018650;28;20041;-84
2023/08/19 00:11:49;;;;;;;6.22;1.10;;;;;;;16.02;100.00;97559.00;4997875;28;20840;-84
2023/08/19 00:14:14;;;;;;;7.13;1.05;;;;;;;16.04;100.00;97548.91;5018769;28;20030;-84
2023/08/19 00:16:40;;;;;;;2.67;0.70;;;;;;;16.03;100.00;97528.63;5018930;28;20026;-84
2023/08/19 00:19:06;;;;;;;3.25;1.08;;;;;;;15.93;100.00;97515.97;5024988;28;20050;-84
2023/08/19 00:21:32;;;;;;;3.58;0.63;;;;;;;15.98;100.00;97497.41;5011927;28;20033;-84
2023/08/19 00:23:58;;;;;;;5.75;0.80;;;;;;;15.95;100.00;97489.91;4992127;28;20033;-84
2023/08/19 00:26:25;;;;;;;8.38;0.68;;;;;;;15.92;100.00;97475.25;5021835;28;20468;-85
2023/08/19 00:28:51;;;;;;;5.97;0.60;;;;;;;15.92;100.00;97459.25;5021999;28;20038;-86
2023/08/19 00:31:16;;;;;;;10.40;1.35;;;;;;;15.93;100.00;97442.22;5024188;28;20029;-83
2023/08/19 00:33:43;;;;;;;9.20;1.05;;;;;;;15.96;100.00;97425.72;5019517;28;20041;-83
2023/08/19 00:36:09;;;;;;;7.22;1.10;;;;;;;15.94;100.00;97419.06;5013999;28;21016;-85
2023/08/19 00:38:34;;;;;;;13.65;1.27;;;;;;;15.93;100.00;97404.91;5027196;28;20585;-85
2023/08/19 00:41:03;;;;;;;7.78;1.05;;;;;;;15.95;100.00;97394.00;5011799;28;20028;-84
2023/08/19 00:43:29;;;;;;;5.28;0.82;;;;;;;15.96;100.00;97385.75;5014259;28;20669;-84
2023/08/19 00:45:55;;;;;;;8.65;1.33;;;;;;;15.98;100.00;97372.22;5001117;28;20102;-84
2023/08/19 00:48:23;;;;;;;5.93;1.25;;;;;;;15.97;100.00;97368.75;5007066;28;20112;-85
2023/08/19 00:50:49;;;;;;;3.50;0.50;;;;;;;15.93;100.00;97354.31;4992104;28;20033;-85
2023/08/19 00:53:15;;;;;;;6.72;0.80;;;;;;;15.90;100.00;97354.00;5027531;28;20041;-86
2023/08/19 00:55:41;;;;;;;3.25;0.63;;;;;;;15.87;100.00;97342.84;5022512;28;20400;-84
2023/08/19 00:58:08;;;;;;;5.50;0.50;;;;;;;15.87;100.00;97336.69;5022242;28;20041;-84
2023/08/19 01:00:34;;;;;;;7.90;0.98;;;;;;;15.83;100.00;97341.72;5004707;28;20115;-84
2023/08/19 01:03:04;;;;;;;11.90;0.88;;;;;;;15.84;100.00;97342.53;5044558;28;20128;-85
2023/08/19 01:06:09;;;;;;;5.05;0.70;;;;;;;15.84;100.00;97343.34;5042760;28;20108;-86
2023/08/19 01:08:49;;;;;;;3.78;0.50;;;;;;;15.86;100.00;97359.84;4992820;28;20037;-84
2023/08/19 01:11:38;;;;;;;4.00;0.70;;;;;;;15.86;100.00;97357.19;5024916;28;20049;-85
2023/08/19 01:14:30;;;;;;;4.13;0.70;;;;;;;15.87;100.00;97374.78;5017899;28;20084;-84
2023/08/19 01:16:59;;;;;;;2.40;0.50;;;;;;;15.87;100.00;97381.97;5040911;28;20068;-85
2023/08/19 01:19:30;;;;;;;4.72;0.52;;;;;;;15.94;100.00;97403.06;5012267;28;20057;-82
2023/08/19 01:22:07;;;;;;;4.50;1.05;;;;;;;15.99;100.00;97432.41;5040738;28;20109;-83
2023/08/19 01:24:35;;;;;;;3.67;0.60;;;;;;;15.99;100.00;97451.88;5025851;28;20033;-84
2023/08/19 01:27:06;;;;;;;2.67;0.40;;;;;;;16.06;100.00;97472.97;5020300;28;20088;-84
2023/08/19 01:29:32;;;;;;;1.83;0.32;;;;;;;16.05;100.00;97481.22;5027830;28;20036;-84
2023/08/19 01:31:58;;;;;;;1.27;0.50;;;;;;;16.07;100.00;97498.56;4994383;28;20034;-84
2023/08/19 01:34:25;;;;;;;2.42;0.40;;;;;;;16.10;100.00;97515.91;5008028;28;20042;-84
2023/08/19 01:37:01;;;;;;;6.70;0.82;;;;;;;16.12;100.00;97529.78;5018404;28;20069;-84
2023/08/19 01:39:28;;;;;;;2.70;0.50;;;;;;;16.07;100.00;97545.72;4994527;28;20102;-84
2023/08/19 01:41:54;;;;;;;1.13;0.25;;;;;;;16.00;100.00;97569.91;5025283;28;20056;-84
2023/08/19 01:44:21;;;;;;;2.00;0.40;;;;;;;16.01;100.00;97594.69;5007667;28;20483;-82
2023/08/19 01:46:47;;;;;;;2.47;0.40;;;;;;;15.99;100.00;97606.38;5027675;28;20033;-83
2023/08/19 01:49:13;;;;;;;2.38;0.40;;;;;;;15.99;100.00;97626.88;5010532;28;20084;-83
2023/08/19 01:51:38;;;;;;;2.90;0.30;;;;;;;15.96;100.00;97644.16;5013405;28;20603;-83
2023/08/19 01:54:04;;;;;;;2.47;0.30;;;;;;;15.96;100.00;97656.66;5012632;28;20049;-84
2023/08/19 01:56:30;;;;;;;4.75;0.40;;;;;;;15.94;100.00;97677.44;5011699;28;20038;-84
2023/08/19 01:58:57;;;;;;;2.05;0.35;;;;;;;15.93;100.00;97691.78;5009316;28;20030;-83
2023/08/19 02:01:22;;;;;;;1.08;0.22;;;;;;;15.92;100.00;97717.63;5010982;28;20041;-84
2023/08/19 02:03:48;;;;;;;4.30;0.47;;;;;;;15.93;100.00;97726.41;5016267;28;20041;-83
2023/08/19 02:06:14;;;;;;;3.22;0.77;;;;;;;15.89;100.00;97742.09;5006057;28;20029;-84
2023/08/19 02:08:39;;;;;;;4.53;0.80;;;;;;;15.92;100.00;97775.41;5016351;28;20514;-83
2023/08/19 02:11:05;;;;;;;3.63;0.52;;;;;;;15.90;100.00;97788.16;5014364;28;20034;-83
2023/08/19 02:13:31;;;;;;;4.72;0.80;;;;;;;15.95;100.00;97813.03;5020862;28;20384;-83
2023/08/19 02:15:57;;;;;;;8.88;1.00;;;;;;;15.94;100.00;97824.72;5015328;28;20068;-83
2023/08/19 02:18:22;;;;;;;4.40;0.82;;;;;;;15.97;100.00;97839.44;5010112;28;20041;-83
2023/08/19 02:20:48;;;;;;;5.65;1.00;;;;;;;15.96;100.00;97854.59;5012628;28;20068;-84
2023/08/19 02:23:14;;;;;;;4.72;0.68;;;;;;;15.96;100.00;97867.09;5030537;28;20044;-84
2023/08/19 02:25:40;;;;;;;7.40;0.90;;;;;;;15.97;100.00;97876.72;5015458;28;20030;-83
2023/08/19 02:28:06;;;;;;;8.27;1.00;;;;;;;15.96;100.00;97877.75;4996995;28;20025;-83
2023/08/19 02:30:32;;;;;;;4.72;0.70;;;;;;;15.96;100.00;97902.53;5026232;28;20030;-82
2023/08/19 02:33:04;;;;;;;4.00;0.80;;;;;;;16.00;100.00;97916.22;5013021;28;20598;-83
2023/08/19 02:35:30;;;;;;;8.35;0.60;;;;;;;15.98;100.00;97923.66;5023555;28;20107;-83
2023/08/19 02:37:56;;;;;;;2.83;0.50;;;;;;;15.98;100.00;97934.31;5012154;28;20108;-83
2023/08/19 02:40:21;;;;;;;4.45;0.60;;;;;;;16.00;100.00;97940.22;4993290;28;20044;-83
2023/08/19 02:42:47;;;;;;;3.55;0.55;;;;;;;16.02;100.00;97951.44;5029508;28;20483;-84
2023/08/19 02:45:13;;;;;;;4.72;0.70;;;;;;;16.06;100.00;97959.72;5012992;28;20032;-84
2023/08/19 02:47:38;;;;;;;2.88;0.52;;;;;;;16.08;100.00;97968.31;5012967;28;20567;-83
2023/08/19 02:50:05;;;;;;;2.72;0.55;;;;;;;16.07;100.00;97978.16;5024527;28;20037;-83
2023/08/19 02:52:31;;;;;;;5.13;0.60;;;;;;;16.07;100.00;97983.47;5010688;28;20033;-83
2023/08/19 02:54:57;;;;;;;4.75;0.55;;;;;;;16.12;100.00;97998.72;4992633;28;20055;-83
2023/08/19 02:57:23;;;;;;;3.35;0.40;;;;;;;16.11;100.00;97997.13;5014909;28;20487;-83
2023/08/19 02:59:48;;;;;;;10.80;1.17;;;;;;;16.14;100.00;98012.63;5038634;28;20033;-84
2023/08/19 03:02:14;;;;;;;5.32;1.02;;;;;;;16.14;100.00;98007.31;5021871;28;20045;-83
2023/08/19 03:04:40;;;;;;;5.45;1.00;;;;;;;16.14;100.00;98015.28;5021049;28;20025;-83
2023/08/19 03:07:06;;;;;;;5.00;1.02;;;;;;;16.17;100.00;98025.47;5021378;28;20033;-83
2023/08/19 03:09:31;;;;;;;8.05;1.00;;;;;;;16.16;100.00;98020.38;5011921;28;20041;-83
2023/08/19 03:11:57;;;;;;;5.38;1.10;;;;;;;16.19;100.00;98027.91;5020241;28;20080;-83
2023/08/19 03:14:23;;;;;;;9.43;1.13;;;;;;;16.18;100.00;98040.41;5026686;28;20081;-83
2023/08/19 03:16:49;;;;;;;5.28;1.40;;;;;;;16.17;100.00;98045.97;5011064;28;20033;-84
2023/08/19 03:19:15;;;;;;;9.48;1.00;;;;;;;16.16;100.00;98044.38;5006643;28;20127;-83
2023/08/19 03:21:42;;;;;;;5.68;0.85;;;;;;;16.17;100.00;98046.78;5007795;28;20034;-84
2023/08/19 03:24:07;;;;;;;7.80;0.93;;;;;;;16.20;100.00;98062.31;5024233;28;20033;-83
2023/08/19 03:26:33;;;;;;;6.30;0.90;;;;;;;16.21;100.00;98063.91;5008382;28;20034;-83
2023/08/19 03:28:59;;;;;;;5.68;0.80;;;;;;;16.21;100.00;98079.91;5009914;28;20049;-83
2023/08/19 03:31:25;;;;;;;6.18;0.63;;;;;;;16.23;100.00;98091.13;4994529;28;20029;-84
2023/08/19 03:33:52;;;;;;;2.83;0.50;;;;;;;16.27;100.00;98096.00;5022514;28;20040;-84
2023/08/19 03:36:18;;;;;;;4.28;0.50;;;;;;;16.26;100.00;98097.03;5004401;28;20030;-84
2023/08/19 03:38:44;;;;;;;0.73;0.20;;;;;;;16.30;100.00;98109.66;5014334;28;20045;-83
2023/08/19 03:41:10;;;;;;;4.60;0.40;;;;;;;16.29;100.00;98126.72;5011045;28;20036;-84
2023/08/19 03:43:35;;;;;;;0.75;0.10;;;;;;;16.30;100.00;98119.50;5021950;28;20029;-84
2023/08/19 03:46:01;;;;;;;1.02;0.17;;;;;;;16.33;100.00;98127.00;5009172;28;20036;-83
2023/08/19 03:48:27;;;;;;;0.88;0.28;;;;;;;16.33;100.00;98148.34;5005515;28;20049;-82
2023/08/19 03:50:53;;;;;;;1.60;0.10;;;;;;;16.32;100.00;98168.88;5020537;28;20041;-83
2023/08/19 03:53:18;;;;;;;0.47;0.00;;;;;;;16.35;100.00;98175.56;5018823;28;20041;-83
2023/08/19 03:55:48;;;;;;;0.00;0.00;;;;;;;16.35;100.00;98180.91;5036187;28;20046;-84
2023/08/19 03:58:14;;;;;;;0.93;0.40;;;;;;;16.32;100.00;98186.72;5029101;28;20041;-84
2023/08/19 04:00:39;;;;;;;2.92;0.00;;;;;;;16.36;100.00;98203.84;5024006;28;20038;-84
2023/08/19 04:03:06;;;;;;;0.10;0.00;;;;;;;16.35;100.00;98202.25;5014173;28;20065;-84
2023/08/19 04:05:32;;;;;;;0.57;0.00;;;;;;;16.34;100.00;98203.28;5027393;28;20036;-84
2023/08/19 04:07:58;;;;;;;0.05;0.00;;;;;;;16.30;100.00;98231.44;4996456;28;20042;-84
2023/08/19 04:10:24;;;;;;;0.85;0.08;;;;;;;16.32;100.00;98237.38;5026510;28;20040;-84
2023/08/19 04:12:50;;;;;;;1.30;0.10;;;;;;;16.30;100.00;98255.44;5013806;28;20042;-84
2023/08/19 04:15:17;;;;;;;1.38;0.00;;;;;;;16.29;100.00;98261.84;4993474;28;20053;-83
2023/08/19 04:17:43;;;;;;;0.32;0.03;;;;;;;16.28;100.00;98278.84;4994262;28;20124;-84
2023/08/19 04:20:09;;;;;;;0.35;0.00;;;;;;;16.28;100.00;98284.19;4986156;28;20049;-84
2023/08/19 04:22:37;;;;;;;0.08;0.08;;;;;;;16.27;100.00;98296.72;5013383;28;20163;-82
2023/08/19 04:25:02;;;;;;;0.43;0.00;;;;;;;16.24;100.00;98305.97;5020752;28;20033;-82
2023/08/19 04:27:31;;;;;;;0.43;0.00;;;;;;;16.26;100.00;98308.41;4995069;28;20091;-82
2023/08/19 04:29:58;;;;;;;0.00;0.00;;;;;;;16.22;100.00;98326.75;5021767;28;20029;-83
2023/08/19 04:32:24;;;;;;;0.88;0.00;;;;;;;16.23;100.00;98331.03;5000951;28;20049;-84
2023/08/19 04:34:50;;;;;;;0.68;0.10;;;;;;;16.20;100.00;98347.47;5011033;28;20033;-82
2023/08/19 04:37:16;;;;;;;0.55;0.00;;;;;;;16.22;100.00;98357.91;5018070;28;20045;-82
2023/08/19 04:39:42;;;;;;;0.00;0.00;;;;;;;16.21;100.00;98367.75;5008820;28;20026;-82
2023/08/19 04:42:17;;;;;;;0.55;0.00;;;;;;;16.18;100.00;98372.75;5022733;28;20404;-81
2023/08/19 04:44:43;;;;;;;0.00;0.00;;;;;;;16.18;100.00;98380.75;5005109;28;20042;-82
2023/08/19 04:47:10;;;;;;;1.63;0.00;;;;;;;16.16;100.00;98391.66;4994670;28;20044;-82
2023/08/19 04:49:38;;;;;;;0.00;0.00;;;;;;;16.16;100.00;98412.16;5027167;28;20037;-83
2023/08/19 04:52:04;;;;;;;0.13;0.00;;;;;;;16.12;100.00;98423.28;5027659;28;20616;-84
2023/08/19 04:54:30;;;;;;;1.75;0.00;;;;;;;16.11;100.00;98427.00;5024774;28;20100;-82
2023/08/19 04:56:56;;;;;;;0.63;0.00;;;;;;;16.15;100.00;98455.84;5011760;28;20041;-82
2023/08/19 04:59:22;;;;;;;1.17;0.30;;;;;;;16.15;100.00;98467.28;5025005;28;20064;-83
2023/08/19 05:01:48;;;;;;;0.75;0.03;;;;;;;16.18;100.00;98466.03;5023686;28;20488;-83
2023/08/19 05:04:14;;;;;;;0.40;0.00;;;;;;;16.19;100.00;98472.97;4994656;28;20091;-83
2023/08/19 05:06:40;;;;;;;0.20;0.08;;;;;;;16.19;100.00;98484.47;5010967;28;20037;-83
2023/08/19 05:09:08;;;;;;;0.65;0.20;;;;;;;16.16;100.00;98500.09;5001055;28;20096;-83
2023/08/19 05:11:33;;;;;;;1.02;0.03;;;;;;;16.15;100.00;98511.81;5006944;28;20041;-84
2023/08/19 05:14:03;;;;;;;2.42;0.22;;;;;;;16.12;100.00;98513.06;5010959;28;20088;-84
2023/08/19 05:16:30;;;;;;;0.60;0.10;;;;;;;16.06;100.00;98516.63;5026986;28;20432;-83
2023/08/19 05:19:05;;;;;;;0.35;0.10;;;;;;;16.08;100.00;98539.38;5020386;28;20116;-83
2023/08/19 05:21:32;;;;;;;0.57;0.10;;;;;;;16.01;100.00;98540.50;5023835;28;20041;-82
2023/08/19 05:23:58;;;;;;;0.85;0.20;;;;;;;15.97;100.00;98543.59;5023667;28;20036;-82
2023/08/19 05:26:23;;;;;;;3.38;0.68;;;;;;;15.97;100.00;98550.78;5009737;28;20030;-82
2023/08/19 05:28:49;;;;;;;1.45;0.20;;;;;;;15.94;100.00;98570.66;5027643;28;20494;-83
2023/08/19 05:31:15;;;;;;;1.17;0.10;;;;;;;15.93;100.00;98566.38;5027427;28;20044;-83
2023/08/19 05:33:41;;;;;;;2.63;0.22;;;;;;;15.92;100.00;98580.75;5013231;28;20037;-83
2023/08/19 05:36:06;;;;;;;1.95;0.45;;;;;;;15.89;100.00;98591.88;5024816;28;20099;-83
2023/08/19 05:38:32;;;;;;;1.65;0.20;;;;;;;15.87;100.00;98597.44;5000753;28;20044;-84
2023/08/19 05:40:58;;;;;;;1.55;0.30;;;;;;;15.84;100.00;98605.88;4996001;28;20044;-83
2023/08/19 05:43:24;;;;;;;5.40;0.47;;;;;;;15.86;100.00;98637.63;5013745;28;20033;-83
2023/08/19 05:45:50;;;;;;;3.03;0.30;;;;;;;15.85;100.00;98631.47;5029656;28;20037;-83
2023/08/19 05:48:15;;;;;;;1.67;0.30;;;;;;;15.84;100.00;98635.16;5042578;28;20061;-83
2023/08/19 05:50:41;;;;;;;2.67;0.50;;;;;;;15.86;100.00;98646.41;5022806;28;20040;-82
2023/08/19 05:53:07;;;;;;;3.85;0.82;;;;;;;15.83;100.00;98657.50;5028972;28;20378;-81
2023/08/19 05:55:33;;;;;;;4.50;0.68;;;;;;;15.83;100.00;98662.81;5027467;28;20034;-84
2023/08/19 05:57:58;;;;;;;5.15;0.80;;;;;;;15.81;100.00;98675.56;5028498;28;20079;-83
2023/08/19 06:00:24;;;;;;;2.35;0.40;;;;;;;15.81;100.00;98678.25;5029511;28;20038;-83
2023/08/19 06:02:50;;;;;;;4.78;0.77;;;;;;;15.79;100.00;98679.47;5036586;28;20114;-83
2023/08/19 06:05:15;;;;;;;6.53;1.15;;;;;;;15.74;100.00;98691.63;5031837;28;20045;-83
2023/08/19 06:07:41;;;;;;;5.22;0.90;;;;;;;15.74;100.00;98678.31;4968241;28;20033;-83
2023/08/19 06:10:07;;;;;;;8.45;0.90;;;;;;;15.74;100.00;98696.94;5026796;28;20084;-84
2023/08/19 06:12:33;;;;;;;5.65;1.17;;;;;;;15.72;100.00;98707.00;5017341;28;20034;-83
2023/08/19 06:14:59;;;;;;;4.28;0.70;;;;;;;15.73;100.00;98721.16;5024324;28;20033;-83
2023/08/19 06:17:26;;;;;;;6.10;0.75;;;;;;;15.70;100.00;98719.72;5014975;28;20038;-83
2023/08/19 06:19:51;;;;;;;5.47;0.65;;;;;;;15.70;100.00;98734.91;5018880;28;20068;-84
2023/08/19 06:22:17;;;;;;;4.90;0.73;;;;;;;15.67;100.00;98738.81;5030350;28;20496;-84
2023/08/19 06:24:43;;;;;;;4.55;0.70;;;;;;;15.66;100.00;98745.19;5030223;28;20033;-83
2023/08/19 06:27:09;;;;;;;4.53;0.55;;;;;;;15.65;100.00;98762.19;5013159;28;20033;-83
2023/08/19 06:29:36;;;;;;;7.22;1.27;;;;;;;15.66;100.00;98765.66;5021401;28;20044;-82
2023/08/19 06:32:02;;;;;;;6.88;1.63;;;;;;;15.65;100.00;98782.69;5026364;28;20408;-82
2023/08/19 06:34:28;;;;;;;6.20;0.90;;;;;;;15.67;100.00;98785.94;5011955;28;20543;-84
2023/08/19 06:36:57;;;;;;;6.70;0.90;;;;;;;15.68;100.00;98787.56;5014646;28;20396;-84
2023/08/19 06:39:27;;;;;;;4.20;0.57;;;;;;;15.62;100.00;98798.06;5020341;28;20045;-83
2023/08/19 06:42:01;;;;;;;6.28;0.70;;;;;;;15.60;100.00;98807.31;5028363;28;20488;-84
2023/08/19 06:44:29;;;;;;;4.30;0.75;;;;;;;15.59;100.00;98821.66;5044136;28;20392;-81
2023/08/19 06:46:56;;;;;;;6.55;0.68;;;;;;;15.60;100.00;98815.31;5030384;28;20036;-82
2023/08/19 06:49:22;;;;;;;6.82;0.82;;;;;;;15.62;100.00;98826.56;4994316;28;20087;-84
2023/08/19 06:51:49;;;;;;;8.65;0.75;;;;;;;15.65;100.00;98844.75;5017281;28;20056;-84
2023/08/19 06:54:15;;;;;;;5.13;0.77;;;;;;;15.63;100.00;98849.47;5015099;28;20534;-84
2023/08/19 06:56:53;;;;;;;3.92;0.70;;;;;;;15.71;100.00;98859.03;5029825;28;20476;-84
2023/08/19 06:59:22;;;;;;;8.90;0.68;;;;;;;15.69;100.00;98864.59;5011318;28;20414;-84
2023/08/19 07:01:54;;;;;;;2.05;0.80;;;;;;;15.80;100.00;98862.28;5024869;28;20033;-84
2023/08/19 07:04:22;;;;;;;2.90;0.73;;;;;;;15.80;100.00;98875.59;5010225;28;20418;-83
2023/08/19 07:06:49;;;;;;;4.50;0.60;;;;;;;15.81;100.00;98887.88;5012368;28;20155;-83
2023/08/19 07:09:20;;;;;;;3.92;1.27;;;;;;;15.82;100.00;98889.50;5028025;28;20036;-83
2023/08/19 07:11:46;;;;;;;3.67;0.40;;;;;;;15.82;100.00;98900.16;4996743;28;20041;-83
2023/08/19 07:14:12;;;;;;;6.72;1.20;;;;;;;15.81;100.00;98902.00;5011534;28;20083;-84
2023/08/19 07:16:39;;;;;;;3.42;0.50;;;;;;;15.83;100.00;98912.44;5029953;28;20446;-81
2023/08/19 07:19:10;;;;;;;2.42;0.40;;;;;;;15.83;100.00;98928.44;5025505;28;20088;-82
2023/08/19 07:21:37;;;;;;;2.08;0.40;;;;;;;15.85;100.00;98934.34;5008777;28;20048;-83
2023/08/19 07:24:03;;;;;;;3.45;1.00;;;;;;;15.85;100.00;98934.34;5011016;28;20042;-83
2023/08/19 07:26:30;;;;;;;2.30;0.47;;;;;;;15.86;100.00;98933.34;5031984;28;20076;-81
2023/08/19 07:28:56;;;;;;;4.75;0.30;;;;;;;15.86;100.00;98947.44;5025298;28;20553;-81
2023/08/19 07:31:22;;;;;;;3.47;0.43;;;;;;;15.88;100.00;98952.56;5002482;28;20025;-84
2023/08/19 07:33:49;;;;;;;5.68;0.63;;;;;;;15.92;100.00;98950.28;5007207;28;20498;-83
2023/08/19 07:36:15;;;;;;;4.53;0.90;;;;;;;15.91;100.00;98957.47;5024942;28;20064;-83
2023/08/19 07:38:41;;;;;;;6.05;0.60;;;;;;;15.90;100.00;98963.81;4994117;28;20132;-83
2023/08/19 07:41:06;;;;;;;6.72;0.95;;;;;;;15.92;100.00;98977.75;5039595;28;20159;-83
2023/08/19 07:43:32;;;;;;;4.38;0.45;;;;;;;15.94;100.00;98986.34;5005680;28;20106;-84
2023/08/19 07:45:59;;;;;;;5.40;0.45;;;;;;;15.98;100.00;98987.59;5026320;28;20511;-82
2023/08/19 07:48:25;;;;;;;4.55;0.80;;;;;;;16.00;100.00;98990.03;5023462;28;20041;-81
2023/08/19 07:50:51;;;;;;;7.75;0.68;;;;;;;16.04;100.00;98993.09;5010533;28;20103;-83
2023/08/19 07:53:16;;;;;;;1.40;0.30;;;;;;;16.10;100.00;98997.56;4995943;28;20128;-84
2023/08/19 07:55:43;;;;;;;5.68;1.02;;;;;;;16.14;100.00;99009.41;5008329;28;20113;-83
2023/08/19 07:58:09;;;;;;;2.95;0.40;;;;;;;16.19;100.00;99014.06;4988136;28;20475;-83
2023/08/19 08:00:35;;;;;;;4.07;0.60;;;;;;;16.23;100.00;99025.94;5000642;28;20107;-83
2023/08/19 08:03:01;;;;;;;4.00;0.52;;;;;;;16.29;100.00;99029.59;5008188;28;20044;-83
2023/08/19 08:05:27;;;;;;;2.28;0.40;;;;;;;16.32;100.00;99037.16;5020571;28;20033;-83
2023/08/19 08:07:53;;;;;;;3.17;0.50;;;;;;;16.41;100.00;99041.19;5023424;28;20046;-83
2023/08/19 08:10:18;;;;;;;2.05;0.40;;;;;;;16.41;100.00;99046.50;5024005;28;20033;-83
2023/08/19 08:12:44;;;;;;;2.30;0.30;;;;;;;16.46;100.00;99056.53;5025659;28;20056;-83
2023/08/19 08:15:10;;;;;;;2.35;0.40;;;;;;;16.47;100.00;99056.31;5024973;28;20041;-84
2023/08/19 08:17:36;;;;;;;2.63;0.40;;;;;;;16.48;100.00;99060.59;5005735;28;20038;-83
2023/08/19 08:20:02;;;;;;;3.08;0.35;;;;;;;16.51;100.00;99067.38;5008631;28;20110;-83
2023/08/19 08:22:28;;;;;;;4.38;0.55;;;;;;;16.54;100.00;99064.28;5038453;28;20033;-83
2023/08/19 08:24:55;;;;;;;1.75;0.20;;;;;;;16.57;100.00;99085.16;5020889;28;20037;-83
2023/08/19 08:27:21;;;;;;;1.85;0.30;;;;;;;16.58;100.00;99078.00;5039101;28;20021;-83
2023/08/19 08:29:47;;;;;;;2.35;0.50;;;;;;;16.61;100.00;99088.22;4992860;28;20041;-81
2023/08/19 08:32:13;;;;;;;4.47;0.68;;;;;;;16.64;100.00;99085.13;5027565;28;20102;-81
2023/08/19 08:34:38;;;;;;;3.33;0.40;;;;;;;16.68;100.00;99091.66;5020963;28;20044;-83
2023/08/19 08:37:04;;;;;;;5.95;0.40;;;;;;;16.68;100.00;99096.16;5024994;28;20030;-83
2023/08/19 08:39:30;;;;;;;1.83;0.28;;;;;;;16.73;100.00;99104.31;5007546;28;20069;-83
2023/08/19 08:41:56;;;;;;;2.72;0.47;;;;;;;16.75;100.00;99094.25;5026875;28;20034;-83
2023/08/19 08:44:25;;;;;;;6.35;0.68;;;;;;;16.80;100.00;99102.41;4988247;28;20041;-83
2023/08/19 08:46:51;;;;;;;2.58;0.47;;;;;;;16.80;100.00;99107.75;5005975;28;20060;-83
2023/08/19 08:49:18;;;;;;;3.00;0.55;;;;;;;16.84;100.00;99119.63;5016015;28;20029;-82
2023/08/19 08:51:44;;;;;;;2.90;0.52;;;;;;;16.86;100.00;99125.56;5016626;28;20041;-82
2023/08/19 08:54:10;;;;;;;3.83;0.50;;;;;;;16.91;100.00;99126.75;5014384;28;20037;-82
2023/08/19 08:56:36;;;;;;;4.13;0.60;;;;;;;16.90;100.00;99131.28;5003618;28;20037;-82
2023/08/19 08:59:02;;;;;;;6.28;0.60;;;;;;;16.88;100.00;99133.38;5028029;28;20376;-83
2023/08/19 09:01:29;;;;;;;5.47;1.10;;;;;;;16.87;100.00;99150.38;5026886;28;20033;-82
2023/08/19 09:04:04;;;;;;;4.75;0.55;;;;;;;16.85;100.00;99160.47;4982772;28;20061;-83
2023/08/19 09:06:30;;;;;;;3.10;0.32;;;;;;;16.81;100.00;99164.59;5009612;28;20026;-83
2023/08/19 09:09:08;;;;;;;3.38;0.60;;;;;;;16.83;100.00;99168.69;5010288;28;20042;-83
2023/08/19 09:11:38;;;;;;;5.72;0.60;;;;;;;16.81;100.00;99176.09;5021805;28;20563;-83
2023/08/19 09:14:19;;;;;;;3.60;0.50;;;;;;;16.82;100.00;99172.38;5033289;28;20120;-82
2023/08/19 09:16:45;;;;;;;3.45;0.50;;;;;;;16.81;100.00;99183.28;5021276;28;20044;-83
2023/08/19 09:19:10;;;;;;;1.48;0.30;;;;;;;16.84;100.00;99194.34;5030578;28;20046;-83
2023/08/19 09:21:36;;;;;;;3.88;0.52;;;;;;;16.86;100.00;99194.13;5030788;28;20033;-83
2023/08/19 09:24:02;;;;;;;3.40;0.40;;;;;;;16.90;100.00;99199.88;5025516;28;20034;-83
2023/08/19 09:26:28;;;;;;;4.35;0.40;;;;;;;16.91;100.00;99191.63;5000484;28;20038;-84
2023/08/19 09:28:58;;;;;;;2.97;0.60;;;;;;;16.93;100.00;99210.91;5019620;28;20034;-83
2023/08/19 09:31:24;;;;;;;3.25;0.47;;;;;;;16.91;100.00;99214.81;5027626;28;21674;-83
2023/08/19 09:33:54;;;;;;;2.63;0.30;;;;;;;16.99;100.00;99220.72;5014456;28;20049;-84
2023/08/19 09:36:24;;;;;;;2.88;0.40;;;;;;;17.02;100.00;99218.66;5028073;28;20070;-84
2023/08/19 09:38:57;;;;;;;3.13;0.90;;;;;;;17.03;100.00;99231.78;5025667;28;20044;-83
2023/08/19 09:41:28;;;;;;;2.35;0.40;;;;;;;17.06;100.00;99234.00;4994146;28;20515;-84
2023/08/19 09:43:55;;;;;;;2.20;0.40;;;;;;;17.07;100.00;99242.84;5022906;28;20120;-84
2023/08/19 09:46:30;;;;;;;5.25;0.40;;;;;;;17.09;100.00;99246.13;5017873;28;20053;-83
2023/08/19 09:48:57;;;;;;;2.27;0.40;;;;;;;17.08;100.00;99249.84;5025760;28;20029;-84
2023/08/19 09:51:28;;;;;;;6.57;0.52;;;;;;;17.13;100.00;99252.69;5022864;28;20465;-83
2023/08/19 09:53:55;;;;;;;3.30;0.50;;;;;;;17.14;100.00;99256.97;5023033;28;20129;-83
2023/08/19 09:56:30;;;;;;;3.78;0.90;;;;;;;17.19;100.00;99250.97;5028361;28;20018;-83
2023/08/19 09:58:58;;;;;;;2.20;0.35;;;;;;;17.04;100.00;99257.41;5012044;28;20042;-84
2023/08/19 10:01:25;;;;;;;5.57;0.50;;;;;;;17.09;100.00;99270.97;5019706;28;20578;-83
2023/08/19 10:03:52;;;;;;;4.18;0.40;;;;;;;17.16;100.00;99273.59;5011041;28;20065;-83
2023/08/19 10:06:25;;;;;;;2.47;0.38;;;;;;;17.25;100.00;99271.47;5030099;28;20499;-84
2023/08/19 10:09:00;;;;;;;2.05;0.40;;;;;;;17.34;100.00;99272.84;5022581;28;20045;-83
2023/08/19 10:11:30;;;;;;;1.17;0.30;;;;;;;17.52;100.00;99279.25;5032984;28;20092;-81
2023/08/19 10:14:00;;;;;;;2.20;0.52;;;;;;;17.74;100.00;99278.88;5022148;28;20785;-81
2023/08/19 10:16:28;;;;;;;2.85;0.50;;;;;;;17.95;100.00;99280.28;4995677;28;20022;-83
2023/08/19 10:18:55;;;;;;;2.35;0.40;;;;;;;18.21;100.00;99285.59;5022607;28;20054;-83
2023/08/19 10:21:23;;;;;;;2.08;0.30;;;;;;;18.49;100.00;99294.91;5017703;28;20389;-83
2023/08/19 10:23:51;;;;;;;3.92;0.50;;;;;;;18.60;100.00;99293.38;5020246;28;20036;-84
2023/08/19 10:26:18;;;;;;;1.77;0.40;;;;;;;18.57;100.00;99296.50;5019501;28;20487;-83
2023/08/19 10:29:04;;;;;;;4.05;0.32;;;;;;;18.60;100.00;99298.72;5009011;28;20108;-83
2023/08/19 10:31:30;;;;;;;2.22;0.40;;;;;;;18.53;100.00;99292.63;5002870;28;20483;-83
2023/08/19 10:33:56;;;;;;;4.57;0.77;;;;;;;18.42;100.00;99311.09;5011011;28;20053;-83
2023/08/19 10:36:28;;;;;;;3.60;0.40;;;;;;;18.48;100.00;99312.03;5010751;28;20446;-83
2023/08/19 10:38:56;;;;;;;2.38;0.77;;;;;;;18.54;100.00;99310.31;5026699;28;20068;-84
2023/08/19 10:41:38;;;;;;;4.20;0.70;;;;;;;18.62;100.00;99326.06;5019190;28;20033;-84
2023/08/19 10:44:06;;;;;;;7.22;0.57;;;;;;;18.53;100.00;99346.13;5020384;28;20036;-85
2023/08/19 10:46:40;;;;;;;3.03;0.68;;;;;;;18.53;100.00;99330.09;5010668;28;20061;-84
2023/08/19 10:49:11;;;;;;;3.10;0.70;;;;;;;18.47;100.00;99337.16;5026152;28;20063;-84
2023/08/19 10:51:46;;;;;;;2.97;0.40;;;;;;;18.46;100.00;99330.97;5003167;28;20034;-85
2023/08/19 10:54:13;;;;;;;3.13;0.70;;;;;;;18.46;100.00;99348.88;4994466;28;20040;-84
2023/08/19 10:56:50;;;;;;;3.85;0.50;;;;;;;18.52;100.00;99350.66;5009765;28;20046;-84
2023/08/19 10:59:17;;;;;;;2.80;0.65;;;;;;;18.47;100.00;99356.69;5024228;28;20029;-84
2023/08/19 11:01:45;;;;;;;3.92;0.65;;;;;;;18.44;100.00;99357.13;5023130;28;20038;-84
2023/08/19 11:04:12;;;;;;;3.00;0.30;;;;;;;18.46;100.00;99364.94;5014083;28;20041;-84
2023/08/19 11:06:39;;;;;;;3.30;0.50;;;;;;;18.51;100.00;99364.25;4985458;28;20163;-83
2023/08/19 11:09:05;;;;;;;3.30;0.40;;;;;;;18.57;100.00;99374.09;5017766;28;20026;-84
2023/08/19 11:11:31;;;;;;;7.03;0.40;;;;;;;18.68;100.00;99384.03;4998566;28;20032;-84
2023/08/19 11:13:58;;;;;;;2.65;0.60;;;;;;;18.76;100.00;99384.78;5002108;28;20112;-84
2023/08/19 11:16:30;;;;;;;3.03;0.50;;;;;;;18.86;100.00;99387.72;5025816;28;20468;-84
2023/08/19 11:18:56;;;;;;;9.57;0.90;;;;;;;18.90;100.00;99398.81;5010402;28;20123;-84
2023/08/19 11:21:24;;;;;;;6.40;0.60;;;;;;;18.84;100.00;99396.00;5012438;28;20060;-84
2023/08/19 11:23:51;;;;;;;3.70;0.82;;;;;;;18.83;100.00;99396.22;5009139;28;20037;-85
2023/08/19 11:26:17;;;;;;;8.05;1.40;;;;;;;18.83;100.00;99402.41;5013409;28;20428;-84